createdAt,value
2022-09-15T00:02:25.032Z,100813.13
2022-09-15T00:04:51.555Z,100807.38
2022-09-15T00:07:17.925Z,100819.88
2022-09-15T00:09:44.315Z,100819.41
2022-09-15T00:12:10.724Z,100815.19
2022-09-15T00:14:37.138Z,100812.94
2022-09-15T00:17:03.688Z,100807.16
2022-09-15T00:19:30.136Z,100807.63
2022-09-15T00:21:56.569Z,100813.22
2022-09-15T00:24:22.957Z,100808.41
2022-09-15T00:26:49.394Z,100818.19
2022-09-15T00:29:15.807Z,100816.72
2022-09-15T00:31:42.240Z,100811.69
2022-09-15T00:34:12.392Z,100815.25
2022-09-15T00:36:38.781Z,100814.56
2022-09-15T00:39:05.940Z,100812.03
2022-09-15T00:41:32.380Z,100815.59
2022-09-15T00:44:02.275Z,100814.78
2022-09-15T00:46:39.537Z,100810.59
2022-09-15T00:49:16.915Z,100809.84
2022-09-15T00:51:50.062Z,100819.50
2022-09-15T00:54:21.680Z,100816.13
2022-09-15T00:56:51.675Z,100811.75
2022-09-15T00:59:23.698Z,100818.88
2022-09-15T01:01:56.812Z,100824.22
2022-09-15T01:04:23.290Z,100820.03
2022-09-15T01:06:56.788Z,100819.19
2022-09-15T01:09:31.056Z,100818.56
2022-09-15T01:11:58.097Z,100810.94
2022-09-15T01:14:24.507Z,100811.22
2022-09-15T01:17:22.066Z,100821.84
2022-09-15T01:20:26.177Z,100813.44
2022-09-15T01:22:59.681Z,100820.59
2022-09-15T01:25:51.036Z,100818.91
2022-09-15T01:28:49.799Z,100832.13
2022-09-15T01:31:25.437Z,100822.47
2022-09-15T01:34:16.783Z,100828.69
2022-09-15T01:36:55.007Z,100830.47
2022-09-15T01:39:26.289Z,100828.78
2022-09-15T01:42:03.588Z,100830.56
2022-09-15T01:44:38.334Z,100833.38
2022-09-15T01:47:10.664Z,100833.38
2022-09-15T01:49:44.405Z,100834.34
2022-09-15T01:52:11.030Z,100827.66
2022-09-15T01:54:45.874Z,100839.91
2022-09-15T01:57:12.308Z,100839.16
2022-09-15T01:59:38.734Z,100838.56
2022-09-15T02:02:16.229Z,100831.13
2022-09-15T02:05:06.743Z,100826.19
2022-09-15T02:07:51.228Z,100827.13
2022-09-15T02:10:26.999Z,100832.38
2022-09-15T02:12:56.508Z,100827.25
2022-09-15T02:15:51.613Z,100829.25
2022-09-15T02:18:24.465Z,100832.06
2022-09-15T02:21:03.708Z,100830.41
2022-09-15T02:23:37.647Z,100828.69
2022-09-15T02:26:14.104Z,100822.63
2022-09-15T02:28:43.001Z,100833.09
2022-09-15T02:31:14.239Z,100829.56
2022-09-15T02:33:45.083Z,100827.16
2022-09-15T02:36:15.073Z,100832.06
2022-09-15T02:38:49.287Z,100832.81
2022-09-15T02:41:15.766Z,100837.81
2022-09-15T02:43:47.022Z,100841.09
2022-09-15T02:46:15.833Z,100840.13
2022-09-15T02:48:42.449Z,100849.44
2022-09-15T02:51:08.879Z,100847.66
2022-09-15T02:53:36.474Z,100839.81
2022-09-15T02:56:06.666Z,100839.72
2022-09-15T02:58:34.342Z,100838.63
2022-09-15T03:01:06.376Z,100836.97
2022-09-15T03:03:33.326Z,100832.69
2022-09-15T03:06:16.447Z,100836.03
2022-09-15T03:08:47.614Z,100835.09
2022-09-15T03:11:15.450Z,100839.38
2022-09-15T03:13:42.120Z,100834.97
2022-09-15T03:16:13.456Z,100837.72
2022-09-15T03:18:40.543Z,100842.00
2022-09-15T03:21:10.006Z,100841.16
2022-09-15T03:23:36.664Z,100838.63
2022-09-15T03:26:03.518Z,100842.13
2022-09-15T03:28:30.234Z,100841.25
2022-09-15T03:30:57.008Z,100843.88
2022-09-15T03:33:24.393Z,100843.88
2022-09-15T03:35:52.658Z,100843.88
2022-09-15T03:38:20.136Z,100856.97
2022-09-15T03:41:01.662Z,100856.16
2022-09-15T03:43:30.062Z,100850.91
2022-09-15T03:45:56.844Z,100854.47
2022-09-15T03:48:24.558Z,100855.31
2022-09-15T03:50:51.343Z,100854.59
2022-09-15T03:53:18.497Z,100853.72
2022-09-15T03:55:49.001Z,100852.81
2022-09-15T03:58:17.340Z,100850.06
2022-09-15T04:00:44.472Z,100864.22
2022-09-15T04:03:11.297Z,100871.34
2022-09-15T04:05:38.772Z,100865.06
2022-09-15T04:08:05.314Z,100873.78
2022-09-15T04:10:32.022Z,100862.34
2022-09-15T04:12:58.482Z,100848.28
2022-09-15T04:15:24.906Z,100855.94
2022-09-15T04:17:51.372Z,100848.91
2022-09-15T04:20:17.888Z,100855.09
2022-09-15T04:22:45.101Z,100854.28
2022-09-15T04:25:12.073Z,100851.75
2022-09-15T04:27:38.911Z,100852.59
2022-09-15T04:30:07.488Z,100856.06
2022-09-15T04:32:35.670Z,100864.00
2022-09-15T04:35:02.810Z,100860.47
2022-09-15T04:37:29.827Z,100861.38
2022-09-15T04:39:56.626Z,100856.16
2022-09-15T04:42:23.966Z,100856.97
2022-09-15T04:44:50.952Z,100854.34
2022-09-15T04:47:17.660Z,100858.69
2022-09-15T04:49:44.077Z,100858.75
2022-09-15T04:52:10.642Z,100862.22
2022-09-15T04:54:37.170Z,100849.97
2022-09-15T04:57:03.735Z,100852.59
2022-09-15T04:59:30.152Z,100850.91
2022-09-15T05:01:56.657Z,100848.28
2022-09-15T05:04:23.120Z,100854.34
2022-09-15T05:06:49.573Z,100845.66
2022-09-15T05:09:16.096Z,100851.03
2022-09-15T05:11:42.589Z,100845.78
2022-09-15T05:14:10.662Z,100861.38
2022-09-15T05:16:37.372Z,100856.16
2022-09-15T05:19:04.692Z,100861.38
2022-09-15T05:21:31.530Z,100859.59
2022-09-15T05:23:57.961Z,100863.09
2022-09-15T05:26:27.104Z,100866.53
2022-09-15T05:28:53.898Z,100860.47
2022-09-15T05:31:24.989Z,100860.47
2022-09-15T05:33:53.061Z,100856.88
2022-09-15T05:36:21.284Z,100860.34
2022-09-15T05:38:47.751Z,100865.59
2022-09-15T05:41:17.657Z,100857.72
2022-09-15T05:43:46.597Z,100859.38
2022-09-15T05:46:14.145Z,100866.41
2022-09-15T05:48:41.229Z,100862.88
2022-09-15T05:51:08.040Z,100865.38
2022-09-15T05:53:35.704Z,100867.66
2022-09-15T05:56:05.144Z,100870.06
2022-09-15T05:58:32.182Z,100872.59
2022-09-15T06:01:05.476Z,100874.06
2022-09-15T06:03:32.020Z,100865.25
2022-09-15T06:06:00.165Z,100866.81
2022-09-15T06:08:31.287Z,100871.00
2022-09-15T06:11:06.244Z,100871.63
2022-09-15T06:13:33.291Z,100866.28
2022-09-15T06:16:07.593Z,100877.50
2022-09-15T06:18:37.179Z,100876.53
2022-09-15T06:21:09.462Z,100882.63
2022-09-15T06:23:37.051Z,100888.59
2022-09-15T06:26:06.001Z,100887.78
2022-09-15T06:28:33.155Z,100895.44
2022-09-15T06:31:00.117Z,100888.19
2022-09-15T06:33:27.228Z,100895.75
2022-09-15T06:35:53.980Z,100894.69
2022-09-15T06:38:20.402Z,100903.19
2022-09-15T06:40:55.636Z,100899.50
2022-09-15T06:43:22.428Z,100905.59
2022-09-15T06:45:49.320Z,100902.75
2022-09-15T06:48:24.534Z,100904.09
2022-09-15T06:50:55.336Z,100914.03
2022-09-15T06:53:22.240Z,100916.13
2022-09-15T06:55:48.809Z,100920.09
2022-09-15T06:58:15.395Z,100917.75
2022-09-15T07:00:43.014Z,100920.44
2022-09-15T07:03:09.709Z,100917.66
2022-09-15T07:05:36.279Z,100920.69
2022-09-15T07:08:02.972Z,100931.75
2022-09-15T07:10:29.381Z,100932.34
2022-09-15T07:12:55.816Z,100932.72
2022-09-15T07:15:24.870Z,100943.31
2022-09-15T07:17:51.290Z,100948.91
2022-09-15T07:20:17.672Z,100952.00
2022-09-15T07:22:44.266Z,100952.22
2022-09-15T07:25:10.752Z,100959.38
2022-09-15T07:27:37.328Z,100955.88
2022-09-15T07:30:08.467Z,100958.28
2022-09-15T07:32:34.966Z,100961.53
2022-09-15T07:35:02.284Z,100965.63
2022-09-15T07:37:28.842Z,100960.84
2022-09-15T07:39:55.500Z,100957.88
2022-09-15T07:42:22.046Z,100969.72
2022-09-15T07:44:48.456Z,100969.44
2022-09-15T07:47:14.889Z,100964.78
2022-09-15T07:49:42.165Z,100963.47
2022-09-15T07:52:08.685Z,100966.63
2022-09-15T07:54:35.087Z,100962.06
2022-09-15T07:57:01.857Z,100967.81
2022-09-15T07:59:28.471Z,100966.53
2022-09-15T08:01:55.195Z,100972.25
2022-09-15T08:04:21.681Z,100975.03
2022-09-15T08:06:48.078Z,100977.31
2022-09-15T08:09:14.683Z,100978.63
2022-09-15T08:11:42.143Z,100980.22
2022-09-15T08:14:08.938Z,100988.09
2022-09-15T08:16:35.856Z,100980.81
2022-09-15T08:19:02.426Z,100981.50
2022-09-15T08:21:29.152Z,100982.25
2022-09-15T08:23:58.508Z,100992.28
2022-09-15T08:26:26.887Z,100996.94
2022-09-15T08:28:53.830Z,101001.28
2022-09-15T08:31:20.749Z,101006.28
2022-09-15T08:33:49.104Z,101005.09
2022-09-15T08:36:15.596Z,101010.50
2022-09-15T08:38:44.438Z,101010.13
2022-09-15T08:41:43.028Z,101024.59
2022-09-15T08:44:43.198Z,101020.81
2022-09-15T08:47:14.947Z,101016.72
2022-09-15T08:49:52.494Z,101022.09
2022-09-15T08:52:30.289Z,101031.34
2022-09-15T08:54:58.724Z,101022.91
2022-09-15T08:57:26.122Z,101026.50
2022-09-15T08:59:54.441Z,101036.31
2022-09-15T09:02:42.755Z,101033.56
2022-09-15T09:05:29.505Z,101026.50
2022-09-15T09:08:08.060Z,101028.31
2022-09-15T09:10:56.010Z,101034.19
2022-09-15T09:13:35.751Z,101037.66
2022-09-15T09:16:09.740Z,101037.19
2022-09-15T09:19:03.747Z,101031.44
2022-09-15T09:21:35.213Z,101036.91
2022-09-15T09:24:17.458Z,101028.31
2022-09-15T09:26:49.588Z,101031.78
2022-09-15T09:29:18.905Z,101036.53
2022-09-15T09:31:50.708Z,101036.91
2022-09-15T09:34:23.646Z,101046.69
2022-09-15T09:36:58.355Z,101041.19
2022-09-15T09:39:26.758Z,101039.03
2022-09-15T09:41:54.416Z,101044.66
2022-09-15T09:44:21.036Z,101045.63
2022-09-15T09:46:47.849Z,101039.03
2022-09-15T09:49:20.901Z,101037.72
2022-09-15T09:51:59.786Z,101045.75
2022-09-15T09:54:28.657Z,101046.72
2022-09-15T09:57:14.550Z,101051.69
2022-09-15T09:59:49.427Z,101052.25
2022-09-15T10:02:20.577Z,101058.34
2022-09-15T10:05:08.593Z,101054.38
2022-09-15T10:07:41.385Z,101050.44
2022-09-15T10:10:23.214Z,101047.09
2022-09-15T10:12:54.735Z,101040.69
2022-09-15T10:15:31.785Z,101038.63
2022-09-15T10:17:58.471Z,101039.00
2022-09-15T10:20:28.245Z,101051.00
2022-09-15T10:23:03.867Z,101042.03
2022-09-15T10:25:55.545Z,101034.84
2022-09-15T10:28:26.156Z,101024.69
2022-09-15T10:31:00.312Z,101031.00
2022-09-15T10:33:35.324Z,101028.72
2022-09-15T10:36:14.033Z,101025.25
2022-09-15T10:38:49.112Z,101027.69
2022-09-15T10:41:26.266Z,101021.06
2022-09-15T10:44:11.989Z,101016.34
2022-09-15T10:46:59.065Z,101013.94
2022-09-15T10:49:31.198Z,101003.22
2022-09-15T10:52:03.629Z,101008.13
2022-09-15T10:55:08.130Z,101007.81
2022-09-15T10:57:56.163Z,101003.94
2022-09-15T11:00:25.659Z,100999.56
2022-09-15T11:03:33.249Z,100999.03
2022-09-15T11:06:17.805Z,101008.63
2022-09-15T11:09:13.808Z,101002.78
2022-09-15T11:11:59.016Z,101003.59
2022-09-15T11:14:53.348Z,101002.78
2022-09-15T11:17:43.375Z,100997.22
2022-09-15T11:20:26.399Z,101017.09
2022-09-15T11:23:32.544Z,100999.97
2022-09-15T11:26:06.269Z,100996.03
2022-09-15T11:28:53.700Z,100994.84
2022-09-15T11:31:29.812Z,100990.69
2022-09-15T11:34:05.866Z,100999.91
2022-09-15T11:36:44.282Z,100994.31
2022-09-15T11:39:18.966Z,100996.50
2022-09-15T11:42:08.085Z,100998.81
2022-09-15T11:44:38.091Z,101004.63
2022-09-15T11:47:42.296Z,100997.56
2022-09-15T11:50:11.452Z,101008.91
2022-09-15T11:52:52.134Z,101009.84
2022-09-15T11:55:21.738Z,101012.00
2022-09-15T11:58:05.611Z,101004.09
2022-09-15T12:00:33.317Z,101009.16
2022-09-15T12:03:14.540Z,101003.91
2022-09-15T12:05:46.190Z,100993.25
2022-09-15T12:08:16.809Z,100991.38
2022-09-15T12:10:49.079Z,100985.97
2022-09-15T12:13:20.227Z,101000.75
2022-09-15T12:15:48.516Z,100985.97
2022-09-15T12:18:46.776Z,100978.56
2022-09-15T12:21:19.277Z,100980.78
2022-09-15T12:23:58.408Z,100977.69
2022-09-15T12:26:26.898Z,100990.97
2022-09-15T12:29:04.022Z,100993.22
2022-09-15T12:31:36.734Z,100999.63
2022-09-15T12:34:22.141Z,101000.31
2022-09-15T12:36:51.387Z,101005.97
2022-09-15T12:39:28.573Z,100999.13
2022-09-15T12:41:57.539Z,101004.28
2022-09-15T12:44:35.226Z,101011.03
2022-09-15T12:47:05.298Z,101016.53
2022-09-15T12:49:43.368Z,101021.63
2022-09-15T12:52:11.257Z,101023.66
2022-09-15T12:54:42.090Z,101026.44
2022-09-15T12:57:22.524Z,101039.75
2022-09-15T12:59:48.974Z,101047.53
2022-09-15T13:02:44.920Z,101055.88
2022-09-15T13:05:12.799Z,101055.16
2022-09-15T13:07:57.094Z,101043.13
2022-09-15T13:10:28.686Z,101049.47
2022-09-15T13:13:43.973Z,101046.22
2022-09-15T13:16:32.564Z,101045.66
2022-09-15T13:19:32.727Z,101053.25
2022-09-15T13:22:11.286Z,101053.22
2022-09-15T13:24:53.802Z,101044.25
2022-09-15T13:27:28.286Z,101046.09
2022-09-15T13:30:09.496Z,101039.84
2022-09-15T13:32:54.368Z,101035.97
2022-09-15T13:35:41.180Z,101035.72
2022-09-15T13:38:23.979Z,101037.53
2022-09-15T13:41:19.305Z,101033.91
2022-09-15T13:44:04.970Z,101038.31
2022-09-15T13:47:23.577Z,101030.16
2022-09-15T13:50:06.953Z,101032.38
2022-09-15T13:52:40.738Z,101025.63
2022-09-15T13:55:21.485Z,101031.41
2022-09-15T14:00:54.896Z,101029.56
2022-09-15T14:03:33.830Z,101026.22
2022-09-15T14:06:00.577Z,101026.50
2022-09-15T14:08:32.365Z,101022.56
2022-09-15T14:11:08.601Z,101039.03
2022-09-15T14:13:38.190Z,101025.06
2022-09-15T14:16:23.594Z,101049.63
2022-09-15T14:18:51.793Z,101054.50
2022-09-15T14:21:31.972Z,101046.00
2022-09-15T14:24:03.460Z,101046.97
2022-09-15T14:26:32.816Z,101052.38
2022-09-15T14:29:02.067Z,101056.28
2022-09-15T14:31:35.724Z,101053.25
2022-09-15T14:34:05.931Z,101057.03
2022-09-15T14:36:34.394Z,101051.13
2022-09-15T14:39:16.735Z,101053.84
2022-09-15T14:41:43.835Z,101059.91
2022-09-15T14:47:28.176Z,101057.28
2022-09-15T14:50:07.607Z,101049.88
2022-09-15T14:52:39.421Z,101058.38
2022-09-15T14:55:12.730Z,101053.91
2022-09-15T14:57:41.837Z,101044.47
2022-09-15T15:00:16.957Z,101052.78
2022-09-15T15:02:52.586Z,101049.25
2022-09-15T15:05:34.609Z,101038.16
2022-09-15T15:08:06.604Z,101040.50
2022-09-15T15:10:36.113Z,101056.13
2022-09-15T15:13:08.973Z,101050.59
2022-09-15T15:15:38.440Z,101046.53
2022-09-15T15:18:07.390Z,101046.28
2022-09-15T15:20:33.848Z,101039.16
2022-09-15T15:23:23.571Z,101040.94
2022-09-15T15:25:50.709Z,101043.97
2022-09-15T15:28:34.515Z,101045.47
2022-09-15T15:31:19.812Z,101051.50
2022-09-15T15:33:59.273Z,101059.34
2022-09-15T15:36:28.493Z,101056.53
2022-09-15T15:39:04.672Z,101054.00
2022-09-15T15:41:37.518Z,101056.78
2022-09-15T15:44:28.497Z,101052.03
2022-09-15T15:47:13.336Z,101065.69
2022-09-15T15:50:02.250Z,101064.28
2022-09-15T15:52:26.185Z,101073.41
2022-09-15T15:54:52.682Z,101072.09
2022-09-15T15:57:25.573Z,101076.88
2022-09-15T15:59:57.654Z,101084.78
2022-09-15T16:02:26.665Z,101081.81
2022-09-15T16:04:53.296Z,101079.44
2022-09-15T16:07:22.997Z,101083.72
2022-09-15T16:09:50.535Z,101081.94
2022-09-15T16:12:17.113Z,101090.69
2022-09-15T16:14:43.624Z,101097.53
2022-09-15T16:17:10.805Z,101094.66
2022-09-15T16:19:37.185Z,101084.38
2022-09-15T16:22:03.953Z,101083.66
2022-09-15T16:24:31.072Z,101080.91
2022-09-15T16:26:58.459Z,101088.13
2022-09-15T16:29:29.173Z,101088.47
2022-09-15T16:31:55.671Z,101078.41
2022-09-15T16:34:22.553Z,101095.91
2022-09-15T16:36:48.999Z,101093.53
2022-09-15T16:39:15.387Z,101095.69
2022-09-15T16:41:41.960Z,101094.84
2022-09-15T16:44:18.096Z,101094.63
2022-09-15T16:46:44.828Z,101094.50
2022-09-15T16:49:11.357Z,101092.09
2022-09-15T16:51:37.788Z,101093.91
2022-09-15T16:54:14.172Z,101096.88
2022-09-15T16:56:41.498Z,101094.97
2022-09-15T16:59:08.095Z,101107.03
2022-09-15T17:01:34.558Z,101093.50
2022-09-15T17:04:01.850Z,101098.19
2022-09-15T17:06:28.317Z,101083.56
2022-09-15T17:08:55.761Z,101076.50
2022-09-15T17:11:25.212Z,101073.13
2022-09-15T17:13:51.865Z,101075.91
2022-09-15T17:16:19.673Z,101085.22
2022-09-15T17:18:46.895Z,101089.88
2022-09-15T17:21:14.999Z,101089.88
2022-09-15T17:23:45.344Z,101090.81
2022-09-15T17:26:18.164Z,101088.31
2022-09-15T17:28:44.564Z,101089.50
2022-09-15T17:31:19.931Z,101098.31
2022-09-15T17:33:47.266Z,101097.72
2022-09-15T17:36:13.831Z,101092.22
2022-09-15T17:38:45.356Z,101097.00
2022-09-15T17:41:14.566Z,101100.94
2022-09-15T17:43:40.989Z,101096.03
2022-09-15T17:46:08.868Z,101093.72
2022-09-15T17:48:38.551Z,101100.19
2022-09-15T17:51:06.698Z,101096.94
2022-09-15T17:53:33.234Z,101095.81
2022-09-15T17:55:59.744Z,101102.47
2022-09-15T17:58:31.373Z,101107.34
2022-09-15T18:00:58.495Z,101113.19
2022-09-15T18:03:29.679Z,101105.88
2022-09-15T18:06:01.026Z,101109.41
2022-09-15T18:08:27.841Z,101116.38
2022-09-15T18:10:54.671Z,101109.31
2022-09-15T18:13:24.212Z,101113.53
2022-09-15T18:15:51.190Z,101111.59
2022-09-15T18:18:20.428Z,101114.13
2022-09-15T18:20:47.862Z,101121.28
2022-09-15T18:23:19.818Z,101144.22
2022-09-15T18:25:47.185Z,101149.16
2022-09-15T18:28:14.164Z,101160.84
2022-09-15T18:30:42.810Z,101161.28
2022-09-15T18:33:20.856Z,101154.09
2022-09-15T18:35:50.142Z,101172.56
2022-09-15T18:38:17.075Z,101171.81
2022-09-15T18:40:49.324Z,101165.31
2022-09-15T18:43:16.722Z,101170.78
2022-09-15T18:45:43.167Z,101174.00
2022-09-15T18:48:12.718Z,101184.63
2022-09-15T18:50:40.828Z,101181.44
2022-09-15T18:53:07.377Z,101175.06
2022-09-15T18:55:33.823Z,101178.81
2022-09-15T18:58:01.249Z,101165.81
2022-09-15T19:00:28.706Z,101157.09
2022-09-15T19:03:02.597Z,101159.41
2022-09-15T19:05:30.245Z,101162.03
2022-09-15T19:07:57.637Z,101162.63
2022-09-15T19:10:25.137Z,101170.31
2022-09-15T19:12:51.704Z,101173.25
2022-09-15T19:15:23.520Z,101175.53
2022-09-15T19:17:50.373Z,101176.94
2022-09-15T19:20:17.476Z,101169.69
2022-09-15T19:22:43.869Z,101171.28
2022-09-15T19:25:11.252Z,101181.97
2022-09-15T19:27:38.585Z,101171.81
2022-09-15T19:30:06.591Z,101169.25
2022-09-15T19:32:33.871Z,101164.13
2022-09-15T19:35:00.283Z,101160.69
2022-09-15T19:37:27.043Z,101166.22
2022-09-15T19:39:54.703Z,101179.44
2022-09-15T19:42:21.191Z,101172.50
2022-09-15T19:44:49.361Z,101183.94
2022-09-15T19:47:15.887Z,101178.97
2022-09-15T19:49:42.313Z,101180.41
2022-09-15T19:52:08.798Z,101184.16
2022-09-15T19:54:36.140Z,101182.38
2022-09-15T19:57:02.954Z,101186.66
2022-09-15T19:59:31.554Z,101191.38
2022-09-15T20:01:59.630Z,101188.78
2022-09-15T20:07:12.470Z,101195.53
2022-09-15T20:09:39.363Z,101197.16
2022-09-15T20:12:05.912Z,101190.13
2022-09-15T20:14:32.445Z,101183.97
2022-09-15T20:17:01.192Z,101184.81
2022-09-15T20:19:28.384Z,101178.38
2022-09-15T20:21:54.770Z,101175.03
2022-09-15T20:24:21.851Z,101180.25
2022-09-15T20:26:48.429Z,101185.59
2022-09-15T20:29:14.895Z,101183.28
2022-09-15T20:31:42.136Z,101188.59
2022-09-15T20:34:08.509Z,101186.09
2022-09-15T20:36:36.815Z,101185.88
2022-09-15T20:39:05.750Z,101188.22
2022-09-15T20:41:32.204Z,101187.38
2022-09-15T20:43:59.101Z,101189.03
2022-09-15T20:46:26.537Z,101191.66
2022-09-15T20:48:53.238Z,101192.72
2022-09-15T20:51:33.508Z,101188.50
2022-09-15T20:54:01.562Z,101180.00
2022-09-15T20:56:30.828Z,101191.81
2022-09-15T20:58:59.477Z,101184.41
2022-09-15T21:01:36.803Z,101191.53
2022-09-15T21:04:04.271Z,101187.34
2022-09-15T21:06:31.598Z,101193.59
2022-09-15T21:08:58.626Z,101191.16
2022-09-15T21:11:27.052Z,101192.28
2022-09-15T21:13:54.750Z,101195.28
2022-09-15T21:16:24.550Z,101193.63
2022-09-15T21:18:51.628Z,101191.19
2022-09-15T21:21:19.508Z,101199.41
2022-09-15T21:23:48.141Z,101193.81
2022-09-15T21:26:20.129Z,101190.44
2022-09-15T21:28:46.761Z,101193.25
2022-09-15T21:31:17.281Z,101193.59
2022-09-15T21:33:45.259Z,101207.44
2022-09-15T21:36:23.108Z,101209.31
2022-09-15T21:38:51.629Z,101208.47
2022-09-15T21:41:21.488Z,101215.63
2022-09-15T21:43:49.536Z,101202.06
2022-09-15T21:46:18.317Z,101204.50
2022-09-15T21:48:47.264Z,101209.09
2022-09-15T21:51:15.937Z,101207.47
2022-09-15T21:53:43.011Z,101210.38
2022-09-15T21:56:11.895Z,101206.44
2022-09-15T21:58:42.899Z,101204.84
2022-09-15T22:01:18.853Z,101218.78
2022-09-15T22:03:51.577Z,101215.41
2022-09-15T22:06:19.645Z,101213.81
2022-09-15T22:08:46.756Z,101212.22
2022-09-15T22:11:13.743Z,101221.19
2022-09-15T22:13:41.636Z,101218.75
2022-09-15T22:16:12.194Z,101214.44
2022-09-15T22:18:39.934Z,101211.91
2022-09-15T22:21:22.177Z,101206.84
2022-09-15T22:23:50.209Z,101206.78
2022-09-15T22:26:22.266Z,101199.78
2022-09-15T22:28:48.817Z,101197.44
2022-09-15T22:31:17.371Z,101182.66
2022-09-15T22:33:43.977Z,101185.28
2022-09-15T22:36:11.934Z,101184.44
2022-09-15T22:38:38.782Z,101182.84
2022-09-15T22:41:09.129Z,101183.78
2022-09-15T22:43:36.836Z,101189.84
2022-09-15T22:46:03.888Z,101185.56
2022-09-15T22:48:30.438Z,101180.41
2022-09-15T22:50:56.887Z,101178.84
2022-09-15T22:53:23.562Z,101172.84
2022-09-15T22:55:50.738Z,101180.78
2022-09-15T22:58:17.316Z,101185.31
2022-09-15T23:00:43.809Z,101194.19
2022-09-15T23:03:11.258Z,101190.94
2022-09-15T23:05:38.237Z,101197.34
2022-09-15T23:08:04.712Z,101190.59
2022-09-15T23:10:31.632Z,101189.66
2022-09-15T23:12:59.104Z,101188.00
2022-09-15T23:15:25.564Z,101187.88
2022-09-15T23:17:52.777Z,101192.28
2022-09-15T23:20:19.171Z,101190.59
2022-09-15T23:22:45.639Z,101203.56
2022-09-15T23:25:12.096Z,101198.28
2022-09-15T23:27:38.542Z,101198.00
2022-09-15T23:30:05.380Z,101201.56
2022-09-15T23:32:31.912Z,101200.53
2022-09-15T23:34:58.368Z,101189.88
2022-09-15T23:37:24.886Z,101184.66
2022-09-15T23:39:52.284Z,101183.09
2022-09-15T23:42:19.132Z,101190.09
2022-09-15T23:44:46.134Z,101182.31
2022-09-15T23:47:12.609Z,101188.50
2022-09-15T23:49:39.162Z,101188.50
2022-09-15T23:52:05.590Z,101184.16
2022-09-15T23:54:32.072Z,101185.03
2022-09-15T23:56:58.709Z,101195.97
2022-09-15T23:59:25.222Z,101187.09
